createdAt,value
2023-01-01T00:04:53.173Z,94.79
2023-01-01T00:10:14.924Z,94.69
2023-01-01T00:15:18.686Z,94.66
2023-01-01T00:20:22.177Z,94.87
2023-01-01T00:25:25.926Z,95.23
2023-01-01T00:30:29.815Z,95.59
2023-01-01T00:35:34.048Z,95.99
2023-01-01T00:40:37.581Z,96.35
2023-01-01T00:45:40.685Z,96.67
2023-01-01T00:50:43.918Z,96.66
2023-01-01T00:55:49.807Z,97.08
2023-01-01T01:00:55.171Z,97.12
2023-01-01T01:06:04.653Z,97.73
2023-01-01T01:11:17.285Z,97.83
2023-01-01T01:16:34.812Z,98.40
2023-01-01T01:21:38.763Z,98.75
2023-01-01T01:26:42.651Z,98.76
2023-01-01T01:31:46.687Z,98.60
2023-01-01T01:36:50.083Z,98.44
2023-01-01T01:41:53.307Z,98.32
2023-01-01T01:46:58.023Z,98.58
2023-01-01T01:52:02.126Z,98.23
2023-01-01T01:57:09.021Z,98.42
2023-01-01T02:02:43.132Z,98.64
2023-01-01T02:07:47.660Z,98.64
2023-01-01T02:12:51.277Z,98.16
2023-01-01T02:18:03.613Z,98.13
2023-01-01T02:23:18.655Z,98.26
2023-01-01T02:28:24.507Z,98.31
2023-01-01T02:33:30.126Z,98.00
2023-01-01T02:38:44.958Z,97.93
2023-01-01T02:43:48.827Z,98.72
2023-01-01T02:48:53.778Z,98.28
2023-01-01T02:54:06.050Z,98.24
2023-01-01T03:00:06.050Z,97.58
2023-01-01T03:05:19.028Z,98.01
2023-01-01T03:10:25.036Z,98.11
2023-01-01T03:15:39.161Z,98.15
2023-01-01T03:20:47.753Z,98.11
2023-01-01T03:25:53.997Z,98.91
2023-01-01T03:30:58.081Z,98.71
2023-01-01T03:36:07.061Z,98.69
2023-01-01T03:41:52.278Z,98.96
2023-01-01T03:46:55.954Z,99.07
2023-01-01T03:52:17.452Z,99.26
2023-01-01T03:57:46.541Z,99.20
2023-01-01T04:03:15.978Z,99.13
2023-01-01T04:08:32.579Z,99.34
2023-01-01T04:13:49.435Z,99.92
2023-01-01T04:18:52.575Z,99.71
2023-01-01T04:23:56.165Z,99.89
2023-01-01T04:28:59.780Z,99.20
2023-01-01T04:34:03.218Z,99.96
2023-01-01T04:39:07.036Z,99.74
2023-01-01T04:44:10.339Z,100.00
2023-01-01T04:49:14.349Z,99.73
2023-01-01T04:54:17.398Z,99.58
2023-01-01T04:59:20.560Z,99.61
2023-01-01T05:04:24.559Z,99.74
2023-01-01T05:09:27.747Z,100.00
2023-01-01T05:14:31.961Z,100.00
2023-01-01T05:19:35.749Z,99.78
2023-01-01T05:24:39.637Z,100.00
2023-01-01T05:29:43.093Z,99.81
2023-01-01T05:34:46.272Z,100.00
2023-01-01T05:39:49.889Z,100.00
2023-01-01T05:44:53.693Z,100.00
2023-01-01T05:49:57.294Z,100.00
2023-01-01T05:55:01.410Z,100.00
2023-01-01T06:00:05.855Z,100.00
2023-01-01T06:05:10.329Z,100.00
2023-01-01T06:10:13.462Z,100.00
2023-01-01T06:15:17.550Z,100.00
2023-01-01T06:20:21.509Z,100.00
2023-01-01T06:25:24.756Z,100.00
2023-01-01T06:30:28.782Z,100.00
2023-01-01T06:35:32.277Z,100.00
2023-01-01T06:40:37.316Z,100.00
2023-01-01T06:45:41.036Z,100.00
2023-01-01T06:50:44.243Z,100.00
2023-01-01T06:55:56.725Z,100.00
2023-01-01T07:01:09.845Z,100.00
2023-01-01T07:06:13.369Z,99.65
2023-01-01T07:11:17.132Z,97.60
2023-01-01T07:16:20.926Z,82.01
2023-01-01T07:21:39.565Z,61.71
2023-01-01T07:26:43.472Z,51.71
2023-01-01T07:31:47.760Z,45.88
2023-01-01T07:36:51.294Z,40.85
2023-01-01T07:41:55.465Z,37.04
2023-01-01T07:47:06.488Z,36.88
2023-01-01T07:52:10.290Z,34.02
2023-01-01T07:57:13.687Z,33.14
2023-01-01T08:02:17.257Z,32.18
2023-01-01T08:07:20.955Z,30.77
2023-01-01T08:12:24.456Z,31.11
2023-01-01T08:17:27.621Z,30.85
2023-01-01T08:22:32.184Z,30.32
2023-01-01T08:27:35.629Z,30.31
2023-01-01T08:32:38.856Z,28.88
2023-01-01T08:37:42.060Z,27.54
2023-01-01T08:42:45.300Z,29.32
2023-01-01T08:47:48.943Z,30.29
2023-01-01T08:52:52.080Z,31.33
2023-01-01T08:57:55.770Z,28.71
2023-01-01T09:02:59.997Z,31.24
2023-01-01T09:08:04.611Z,31.21
2023-01-01T09:13:08.279Z,31.24
2023-01-01T09:18:12.526Z,30.56
2023-01-01T09:23:16.008Z,33.65
2023-01-01T09:28:25.132Z,28.74
2023-01-01T09:33:29.909Z,31.08
2023-01-01T09:38:33.149Z,30.89
2023-01-01T09:44:10.564Z,33.04
2023-01-01T09:49:24.208Z,30.68
2023-01-01T09:54:33.828Z,32.57
2023-01-01T09:59:37.001Z,28.13
2023-01-01T10:05:04.119Z,33.23
2023-01-01T10:10:07.537Z,32.53
2023-01-01T10:15:23.547Z,32.31
2023-01-01T10:20:37.784Z,32.27
2023-01-01T10:25:43.145Z,30.79
2023-01-01T10:30:46.205Z,31.42
2023-01-01T10:35:58.778Z,32.64
2023-01-01T10:41:15.220Z,31.32
2023-01-01T10:46:31.635Z,32.41
2023-01-01T10:51:38.660Z,34.59
2023-01-01T10:56:42.523Z,32.58
2023-01-01T11:01:45.677Z,38.26
2023-01-01T11:06:49.059Z,37.17
2023-01-01T11:12:01.987Z,41.24
2023-01-01T11:17:11.251Z,38.72
2023-01-01T11:22:36.418Z,39.48
2023-01-01T11:27:39.941Z,39.61
2023-01-01T11:32:43.202Z,38.87
2023-01-01T11:37:48.182Z,41.44
2023-01-01T11:42:58.924Z,42.63
2023-01-01T11:48:05.887Z,37.31
2023-01-01T11:53:22.265Z,41.09
2023-01-01T11:58:51.875Z,39.09
2023-01-01T12:04:03.007Z,38.39
2023-01-01T12:09:27.845Z,38.81
2023-01-01T12:15:07.918Z,38.74
2023-01-01T12:20:23.583Z,34.98
2023-01-01T12:25:46.971Z,34.06
2023-01-01T12:31:11.333Z,36.20
2023-01-01T12:36:44.787Z,38.00
2023-01-01T12:42:20.569Z,35.57
2023-01-01T12:47:38.583Z,36.63
2023-01-01T12:53:26.667Z,35.60
2023-01-01T12:58:33.198Z,35.48
2023-01-01T13:04:08.093Z,34.94
2023-01-01T13:09:34.848Z,36.49
2023-01-01T13:14:40.081Z,34.39
2023-01-01T13:19:43.484Z,33.67
2023-01-01T13:25:12.208Z,34.56
2023-01-01T13:30:44.274Z,35.91
2023-01-01T13:35:47.437Z,33.27
2023-01-01T13:40:52.039Z,33.84
2023-01-01T13:46:14.013Z,34.54
2023-01-01T13:52:05.200Z,30.07
2023-01-01T13:57:37.717Z,32.15
2023-01-01T14:02:59.509Z,35.48
2023-01-01T14:08:04.282Z,30.62
2023-01-01T14:13:10.649Z,30.61
2023-01-01T14:18:17.279Z,34.60
2023-01-01T14:23:37.087Z,36.69
2023-01-01T14:28:40.719Z,44.22
2023-01-01T14:33:45.262Z,50.87
2023-01-01T14:38:51.709Z,53.03
2023-01-01T14:44:05.165Z,56.77
2023-01-01T14:49:15.107Z,60.58
2023-01-01T14:54:21.540Z,62.52
2023-01-01T14:59:27.012Z,65.79
2023-01-01T15:04:31.149Z,69.87
2023-01-01T15:09:35.185Z,70.59
2023-01-01T15:14:45.945Z,72.73
2023-01-01T15:20:07.982Z,74.40
2023-01-01T15:25:16.891Z,77.43
2023-01-01T15:30:26.264Z,80.04
2023-01-01T15:35:33.477Z,81.76
2023-01-01T15:40:38.253Z,83.82
2023-01-01T15:45:44.316Z,84.86
2023-01-01T15:50:50.524Z,86.21
2023-01-01T15:55:59.845Z,87.45
2023-01-01T16:01:07.109Z,88.56
2023-01-01T16:06:17.431Z,89.47
2023-01-01T16:11:21.173Z,88.81
2023-01-01T16:16:30.842Z,86.98
2023-01-01T16:21:34.804Z,85.27
2023-01-01T16:26:38.301Z,83.71
2023-01-01T16:31:42.538Z,81.80
2023-01-01T16:36:46.574Z,81.29
2023-01-01T16:41:50.347Z,80.36
2023-01-01T16:46:54.345Z,79.51
2023-01-01T16:51:57.808Z,79.37
2023-01-01T16:57:00.938Z,77.87
2023-01-01T17:02:04.221Z,78.11
2023-01-01T17:07:07.803Z,78.17
2023-01-01T17:12:11.380Z,78.10
2023-01-01T17:17:15.663Z,78.30
2023-01-01T17:22:18.938Z,78.64
2023-01-01T17:27:22.498Z,77.87
2023-01-01T17:32:26.067Z,77.62
2023-01-01T17:37:29.665Z,77.68
2023-01-01T17:42:33.073Z,77.84
2023-01-01T17:47:36.887Z,78.25
2023-01-01T17:52:40.223Z,77.94
2023-01-01T17:57:43.960Z,78.93
2023-01-01T18:02:47.075Z,78.98
2023-01-01T18:07:52.789Z,78.86
2023-01-01T18:12:56.462Z,79.69
2023-01-01T18:18:00.779Z,80.44
2023-01-01T18:23:03.982Z,80.65
2023-01-01T18:28:08.270Z,80.99
2023-01-01T18:33:11.338Z,80.87
2023-01-01T18:38:14.947Z,81.45
2023-01-01T18:43:25.378Z,81.67
2023-01-01T18:48:29.251Z,81.47
2023-01-01T18:53:32.838Z,82.16
2023-01-01T18:58:36.068Z,82.69
2023-01-01T19:03:41.541Z,82.78
2023-01-01T19:08:45.781Z,82.64
2023-01-01T19:13:50.675Z,83.20
2023-01-01T19:18:57.826Z,83.46
2023-01-01T19:24:03.245Z,83.17
2023-01-01T19:29:17.571Z,82.87
2023-01-01T19:34:22.709Z,82.86
2023-01-01T19:39:26.095Z,83.32
2023-01-01T19:44:29.246Z,83.22
2023-01-01T19:49:33.035Z,83.49
2023-01-01T19:54:36.388Z,83.68
2023-01-01T19:59:39.914Z,83.60
2023-01-01T20:04:43.802Z,84.27
2023-01-01T20:09:47.499Z,84.09
2023-01-01T20:14:52.127Z,84.75
2023-01-01T20:19:55.588Z,85.13
2023-01-01T20:24:59.396Z,85.75
2023-01-01T20:30:02.540Z,86.00
2023-01-01T20:35:05.869Z,86.19
2023-01-01T20:40:12.541Z,86.40
2023-01-01T20:45:15.751Z,85.86
2023-01-01T20:50:19.491Z,86.05
2023-01-01T20:55:22.719Z,86.54
2023-01-01T21:00:25.921Z,86.89
2023-01-01T21:05:29.737Z,87.11
2023-01-01T21:10:32.915Z,87.84
2023-01-01T21:15:36.615Z,87.30
2023-01-01T21:20:46.100Z,87.46
2023-01-01T21:25:52.245Z,87.65
2023-01-01T21:30:57.812Z,87.78
2023-01-01T21:36:24.286Z,87.53
2023-01-01T21:41:29.250Z,87.75
2023-01-01T21:46:38.234Z,88.28
2023-01-01T21:51:56.119Z,88.17
2023-01-01T21:57:02.777Z,88.58
2023-01-01T22:02:07.134Z,88.70
2023-01-01T22:12:58.337Z,88.54
2023-01-01T22:18:23.643Z,88.83
2023-01-01T22:23:40.970Z,89.50
2023-01-01T22:28:46.317Z,90.34
2023-01-01T22:33:51.646Z,90.56
2023-01-01T22:39:28.103Z,90.58
2023-01-01T22:44:33.849Z,90.26
2023-01-01T22:49:40.225Z,90.93
2023-01-01T22:54:44.045Z,91.15
2023-01-01T22:59:48.203Z,91.32
2023-01-01T23:04:51.585Z,91.24
2023-01-01T23:10:01.557Z,91.76
2023-01-01T23:15:23.756Z,91.53
2023-01-01T23:20:27.653Z,91.92
2023-01-01T23:25:31.033Z,92.28
2023-01-01T23:30:35.160Z,92.40
2023-01-01T23:35:39.057Z,92.83
2023-01-01T23:40:42.532Z,92.65
2023-01-01T23:45:47.179Z,93.00
2023-01-01T23:50:51.193Z,92.49
2023-01-01T23:55:54.291Z,92.32
